Time,TemperatureF,DewpointF,PressureIn,WindDirection,WindDirectionDegrees,WindSpeedMPH,WindSpeedGustMPH,Humidity,HourlyPrecipIn,Conditions,Clouds,dailyrainin,SoftwareType,DateUTC
2013-04-03 00:00:00,57.6,55.3,29.94,NNW,346,2.0,11.0,92,1.20,,SKC,1.20,VWS V14.01,2013-04-03 05:00:00,
2013-04-03 00:05:00,57.7,55.4,29.94,NNW,345,3.0,9.0,92,1.21,,SKC,0.01,VWS V14.01,2013-04-03 05:05:00,
2013-04-03 00:10:00,57.6,55.3,29.95,North,360,6.0,11.0,92,1.22,,SKC,0.02,VWS V14.01,2013-04-03 05:10:00,
2013-04-03 00:15:00,57.5,55.2,29.95,North,355,3.0,11.0,92,1.24,,SKC,0.04,VWS V14.01,2013-04-03 05:15:00,
2013-04-03 00:20:00,57.4,55.4,29.94,North,355,7.0,11.0,93,1.26,,SKC,0.06,VWS V14.01,2013-04-03 05:20:00,
2013-04-03 00:25:00,57.3,55.3,29.95,NNE,20,7.0,12.0,93,1.27,,SKC,0.07,VWS V14.01,2013-04-03 05:25:00,
2013-04-03 00:30:00,57.3,55.3,29.95,North,9,0.0,12.0,93,1.30,,SKC,0.10,VWS V14.01,2013-04-03 05:30:00,
2013-04-03 00:35:00,57.3,55.3,29.94,North,5,10.0,10.0,93,0.67,,SKC,0.12,VWS V14.01,2013-04-03 05:35:00,
2013-04-03 00:40:00,57.3,55.3,29.94,NNE,30,4.0,10.0,93,0.68,,SKC,0.13,VWS V14.01,2013-04-03 05:40:00,
2013-04-03 00:45:00,57.4,55.4,29.94,NE,46,7.0,10.0,93,0.69,,SKC,0.14,VWS V14.01,2013-04-03 05:45:00,
2013-04-03 00:50:00,57.5,55.8,29.94,NE,38,6.0,10.0,94,0.70,,SKC,0.15,VWS V14.01,2013-04-03 05:50:00,
2013-04-03 00:55:00,57.5,55.8,29.94,NNW,327,10.0,10.0,94,0.71,,SKC,0.16,VWS V14.01,2013-04-03 05:55:00,
2013-04-03 01:00:00,57.5,55.8,29.93,ENE,71,0.0,11.0,94,0.72,,SKC,0.17,VWS V14.01,2013-04-03 06:00:00,
2013-04-03 01:05:00,57.5,55.8,29.92,ENE,63,3.0,10.0,94,0.08,,SKC,0.18,VWS V14.01,2013-04-03 06:05:00,
2013-04-03 01:10:00,57.4,55.7,29.91,NE,55,4.0,13.0,94,0.08,,SKC,0.18,VWS V14.01,2013-04-03 06:10:00,
2013-04-03 01:15:00,57.1,55.1,29.89,ENE,65,11.0,13.0,93,0.09,,SKC,0.19,VWS V14.01,2013-04-03 06:15:00,
2013-04-03 01:20:00,57.0,55.3,29.89,ENE,67,5.0,15.0,94,0.10,,SKC,0.20,VWS V14.01,2013-04-03 06:20:00,
2013-04-03 01:25:00,56.8,55.1,29.87,East,94,5.0,15.0,94,0.10,,SKC,0.20,VWS V14.01,2013-04-03 06:25:00,
2013-04-03 01:30:00,56.8,55.1,29.86,ENE,75,10.0,15.0,94,0.10,,SKC,0.20,VWS V14.01,2013-04-03 06:30:00,
2013-04-03 01:35:00,56.7,55.0,29.85,East,96,3.0,13.0,94,0.10,,SKC,0.20,VWS V14.01,2013-04-03 06:35:00,
2013-04-03 01:40:00,56.6,54.9,29.84,East,89,5.0,13.0,94,0.10,,SKC,0.20,VWS V14.01,2013-04-03 06:40:00,
2013-04-03 01:45:00,56.5,54.8,29.83,East,92,9.0,15.0,94,0.10,,SKC,0.20,VWS V14.01,2013-04-03 06:45:00,
2013-04-03 01:50:00,56.4,54.7,29.81,East,87,9.0,15.0,94,0.10,,SKC,0.20,VWS V14.01,2013-04-03 06:50:00,
2013-04-03 01:55:00,56.5,54.8,29.80,East,84,4.0,15.0,94,0.10,,SKC,0.20,VWS V14.01,2013-04-03 06:55:00,
2013-04-03 02:00:00,56.5,54.8,29.79,ENE,68,2.0,15.0,94,0.10,,SKC,0.20,VWS V14.01,2013-04-03 07:00:00,
2013-04-03 02:05:00,56.6,54.9,29.77,NE,40,5.0,15.0,94,0.02,,SKC,0.20,VWS V14.01,2013-04-03 07:05:00,
2013-04-03 02:10:00,56.8,55.1,29.78,North,350,12.0,16.0,94,0.02,,SKC,0.20,VWS V14.01,2013-04-03 07:10:00,
2013-04-03 02:15:00,56.8,55.1,29.78,North,360,4.0,18.0,94,0.02,,SKC,0.20,VWS V14.01,2013-04-03 07:15:00,
2013-04-03 02:20:00,56.8,55.1,29.83,West,275,4.0,18.0,94,0.02,,SKC,0.20,VWS V14.01,2013-04-03 07:20:00,
2013-04-03 02:25:00,56.9,55.5,29.87,WNW,284,12.0,18.0,95,0.02,,SKC,0.20,VWS V14.01,2013-04-03 07:25:00,
2013-04-03 02:30:00,57.1,55.7,29.89,WNW,287,6.0,18.0,95,0.02,,SKC,0.20,VWS V14.01,2013-04-03 07:30:00,
2013-04-03 02:35:00,57.2,55.5,29.90,NW,320,12.0,12.0,94,0.00,,SKC,0.20,VWS V14.01,2013-04-03 07:35:00,
2013-04-03 02:40:00,57.1,55.4,29.88,NNE,20,4.0,16.0,94,0.00,,SKC,0.20,VWS V14.01,2013-04-03 07:40:00,
2013-04-03 02:45:00,56.9,55.2,29.88,North,360,4.0,16.0,94,0.00,,SKC,0.20,VWS V14.01,2013-04-03 07:45:00,
2013-04-03 02:50:00,56.8,55.1,29.89,NNW,343,5.0,16.0,94,0.00,,SKC,0.20,VWS V14.01,2013-04-03 07:50:00,
2013-04-03 02:55:00,56.7,55.0,29.89,NNW,342,3.0,16.0,94,0.00,,SKC,0.20,VWS V14.01,2013-04-03 07:55:00,
2013-04-03 03:00:00,56.6,54.9,29.89,NNW,344,1.0,16.0,94,0.00,,SKC,0.20,VWS V14.01,2013-04-03 08:00:00,
2013-04-03 03:05:00,56.6,54.9,29.89,NNW,344,3.0,4.0,94,0.00,,SKC,0.20,VWS V14.01,2013-04-03 08:05:00,
2013-04-03 03:10:00,56.6,54.9,29.89,NNW,344,0.0,4.0,94,0.00,,SKC,0.20,VWS V14.01,2013-04-03 08:10:00,
2013-04-03 03:15:00,56.6,54.9,29.89,NNW,346,3.0,4.0,94,0.00,,SKC,0.20,VWS V14.01,2013-04-03 08:15:00,
2013-04-03 03:20:00,56.6,54.9,29.89,North,360,2.0,7.0,94,0.00,,SKC,0.20,VWS V14.01,2013-04-03 08:20:00,
2013-04-03 03:25:00,56.5,54.8,29.88,North,351,4.0,7.0,94,0.00,,SKC,0.20,VWS V14.01,2013-04-03 08:25:00,
2013-04-03 03:30:00,56.4,54.7,29.87,North,355,0.0,7.0,94,0.00,,SKC,0.20,VWS V14.01,2013-04-03 08:30:00,
2013-04-03 03:35:00,56.4,54.7,29.87,North,360,0.0,11.0,94,0.00,,SKC,0.20,VWS V14.01,2013-04-03 08:35:00,
2013-04-03 03:40:00,56.3,54.6,29.88,North,360,5.0,11.0,94,0.00,,SKC,0.20,VWS V14.01,2013-04-03 08:40:00,
2013-04-03 03:45:00,56.3,54.6,29.88,NNE,16,4.0,11.0,94,0.00,,SKC,0.20,VWS V14.01,2013-04-03 08:45:00,
2013-04-03 03:50:00,56.3,54.6,29.87,NNE,32,5.0,11.0,94,0.00,,SKC,0.20,VWS V14.01,2013-04-03 08:50:00,
2013-04-03 03:55:00,56.2,54.5,29.87,NNE,17,3.0,11.0,94,0.00,,SKC,0.20,VWS V14.01,2013-04-03 08:55:00,
2013-04-03 04:00:00,56.2,54.5,29.87,North,360,3.0,11.0,94,0.00,,SKC,0.20,VWS V14.01,2013-04-03 09:00:00,
2013-04-03 04:05:00,56.1,54.4,29.87,North,355,6.0,8.0,94,0.00,,SKC,0.20,VWS V14.01,2013-04-03 09:05:00,
2013-04-03 04:10:00,56.0,54.3,29.86,North,5,4.0,8.0,94,0.00,,SKC,0.20,VWS V14.01,2013-04-03 09:10:00,
2013-04-03 04:15:00,56.0,54.3,29.87,NNW,346,4.0,10.0,94,0.00,,SKC,0.20,VWS V14.01,2013-04-03 09:15:00,
2013-04-03 04:20:00,55.9,54.2,29.87,North,355,4.0,12.0,94,0.00,,SKC,0.20,VWS V14.01,2013-04-03 09:20:00,
2013-04-03 04:25:00,55.8,54.1,29.87,North,351,3.0,12.0,94,0.00,,SKC,0.20,VWS V14.01,2013-04-03 09:25:00,
2013-04-03 04:30:00,55.8,54.1,29.88,NNW,345,4.0,12.0,94,0.00,,SKC,0.20,VWS V14.01,2013-04-03 09:30:00,
2013-04-03 04:35:00,55.7,54.0,29.88,NNW,345,3.0,7.0,94,0.00,,SKC,0.20,VWS V14.01,2013-04-03 09:35:00,
2013-04-03 04:40:00,55.6,53.9,29.88,NNW,343,11.0,11.0,94,0.00,,SKC,0.20,VWS V14.01,2013-04-03 09:40:00,
2013-04-03 04:45:00,55.6,53.9,29.88,NNW,335,5.0,12.0,94,0.00,,SKC,0.20,VWS V14.01,2013-04-03 09:45:00,
2013-04-03 04:50:00,55.6,53.9,29.88,North,355,6.0,12.0,94,0.00,,SKC,0.20,VWS V14.01,2013-04-03 09:50:00,
2013-04-03 04:55:00,55.6,53.9,29.89,NNW,346,6.0,12.0,94,0.00,,SKC,0.20,VWS V14.01,2013-04-03 09:55:00,
2013-04-03 05:00:00,55.6,53.9,29.89,NNW,345,5.0,12.0,94,0.00,,SKC,0.20,VWS V14.01,2013-04-03 10:00:00,
2013-04-03 05:05:00,55.6,53.9,29.89,North,355,8.0,12.0,94,0.00,,SKC,0.20,VWS V14.01,2013-04-03 10:05:00,
2013-04-03 05:10:00,55.5,53.8,29.89,NW,317,7.0,15.0,94,0.00,,SKC,0.20,VWS V14.01,2013-04-03 10:10:00,
2013-04-03 05:15:00,55.5,53.8,29.89,NNW,348,5.0,17.0,94,0.00,,SKC,0.20,VWS V14.01,2013-04-03 10:15:00,
2013-04-03 05:20:00,55.5,53.8,29.89,NNW,342,4.0,17.0,94,0.00,,SKC,0.20,VWS V14.01,2013-04-03 10:20:00,
2013-04-03 05:25:00,55.5,53.8,29.90,NNW,330,7.0,17.0,94,0.00,,SKC,0.20,VWS V14.01,2013-04-03 10:25:00,
2013-04-03 05:30:00,55.4,53.7,29.89,NNW,342,6.0,17.0,94,0.00,,SKC,0.20,VWS V14.01,2013-04-03 10:30:00,
2013-04-03 05:35:00,55.4,53.7,29.90,North,355,4.0,14.0,94,0.00,,SKC,0.20,VWS V14.01,2013-04-03 10:35:00,
2013-04-03 05:40:00,55.4,53.7,29.90,NNW,327,9.0,15.0,94,0.00,,SKC,0.20,VWS V14.01,2013-04-03 10:40:00,
2013-04-03 05:45:00,55.4,53.7,29.91,NNW,335,10.0,15.0,94,0.00,,SKC,0.20,VWS V14.01,2013-04-03 10:45:00,
2013-04-03 05:50:00,55.4,53.4,29.91,North,355,7.0,15.0,93,0.00,,SKC,0.20,VWS V14.01,2013-04-03 10:50:00,
2013-04-03 05:55:00,55.4,53.4,29.91,NW,325,11.0,15.0,93,0.00,,SKC,0.20,VWS V14.01,2013-04-03 10:55:00,
2013-04-03 06:00:00,55.5,53.5,29.92,North,360,12.0,15.0,93,0.00,,SKC,0.20,VWS V14.01,2013-04-03 11:00:00,
2013-04-03 06:05:00,55.5,53.5,29.92,North,11,7.0,15.0,93,0.00,,SKC,0.20,VWS V14.01,2013-04-03 11:05:00,
2013-04-03 06:10:00,55.5,53.5,29.92,North,5,4.0,15.0,93,0.00,,SKC,0.20,VWS V14.01,2013-04-03 11:10:00,
2013-04-03 06:15:00,55.6,53.6,29.92,NNW,348,5.0,15.0,93,0.00,,SKC,0.20,VWS V14.01,2013-04-03 11:15:00,
2013-04-03 06:20:00,55.6,53.6,29.92,NNW,348,10.0,15.0,93,0.00,,SKC,0.20,VWS V14.01,2013-04-03 11:20:00,
2013-04-03 06:25:00,55.6,53.3,29.93,North,360,9.0,15.0,92,0.00,,SKC,0.20,VWS V14.01,2013-04-03 11:25:00,
2013-04-03 06:30:00,55.7,53.4,29.93,North,355,6.0,15.0,92,0.00,,SKC,0.20,VWS V14.01,2013-04-03 11:30:00,
2013-04-03 06:35:00,55.7,53.4,29.92,North,5,6.0,16.0,92,0.00,,SKC,0.20,VWS V14.01,2013-04-03 11:35:00,
2013-04-03 06:40:00,55.7,53.4,29.93,NNW,344,5.0,16.0,92,0.00,,SKC,0.20,VWS V14.01,2013-04-03 11:40:00,
2013-04-03 06:45:00,55.7,53.4,29.92,NNW,343,6.0,16.0,92,0.00,,SKC,0.20,VWS V14.01,2013-04-03 11:45:00,
2013-04-03 06:50:00,55.8,53.5,29.93,NNE,13,5.0,16.0,92,0.00,,SKC,0.20,VWS V14.01,2013-04-03 11:50:00,
2013-04-03 06:55:00,55.9,53.6,29.93,North,360,8.0,16.0,92,0.00,,SKC,0.20,VWS V14.01,2013-04-03 11:55:00,
2013-04-03 07:00:00,55.9,53.3,29.93,NNW,327,8.0,17.0,91,0.00,,SKC,0.20,VWS V14.01,2013-04-03 12:00:00,
2013-04-03 07:05:00,56.0,53.7,29.94,North,5,6.0,13.0,92,0.00,,SKC,0.20,VWS V14.01,2013-04-03 12:05:00,
2013-04-03 07:10:00,56.1,53.5,29.94,NNE,24,4.0,15.0,91,0.00,,SKC,0.20,VWS V14.01,2013-04-03 12:10:00,
2013-04-03 07:15:00,56.2,53.6,29.94,NNE,17,10.0,15.0,91,0.00,,SKC,0.20,VWS V14.01,2013-04-03 12:15:00,
2013-04-03 07:20:00,56.3,53.7,29.95,NNE,32,9.0,15.0,91,0.00,,SKC,0.20,VWS V14.01,2013-04-03 12:20:00,
2013-04-03 07:25:00,56.4,53.8,29.95,NNE,21,3.0,15.0,91,0.00,,SKC,0.20,VWS V14.01,2013-04-03 12:25:00,
2013-04-03 07:30:00,56.5,53.9,29.95,NNW,348,2.0,15.0,91,0.00,,SKC,0.20,VWS V14.01,2013-04-03 12:30:00,
2013-04-03 07:35:00,56.6,54.0,29.95,ENE,61,3.0,10.0,91,0.00,,SKC,0.20,VWS V14.01,2013-04-03 12:35:00,
2013-04-03 07:40:00,56.6,54.0,29.95,North,11,0.0,10.0,91,0.00,,SKC,0.20,VWS V14.01,2013-04-03 12:40:00,
2013-04-03 07:45:00,56.7,54.1,29.95,NNE,19,0.0,10.0,91,0.00,,SKC,0.20,VWS V14.01,2013-04-03 12:45:00,
2013-04-03 07:50:00,56.8,54.2,29.96,North,355,7.0,10.0,91,0.00,,SKC,0.20,VWS V14.01,2013-04-03 12:50:00,
2013-04-03 07:55:00,56.7,54.1,29.96,North,360,5.0,13.0,91,0.00,,SKC,0.20,VWS V14.01,2013-04-03 12:55:00,
2013-04-03 08:00:00,56.6,54.0,29.97,North,5,6.0,15.0,91,0.00,,SKC,0.20,VWS V14.01,2013-04-03 13:00:00,
2013-04-03 08:05:00,56.6,53.7,29.98,NNW,332,13.0,14.0,90,0.00,,SKC,0.20,VWS V14.01,2013-04-03 13:05:00,
2013-04-03 08:10:00,56.4,53.5,29.99,North,5,5.0,14.0,90,0.00,,SKC,0.20,VWS V14.01,2013-04-03 13:10:00,
2013-04-03 08:15:00,56.1,53.2,30.00,NNW,327,6.0,14.0,90,0.00,,SKC,0.20,VWS V14.01,2013-04-03 13:15:00,
2013-04-03 08:20:00,55.9,53.0,30.00,North,360,5.0,14.0,90,0.00,,SKC,0.20,VWS V14.01,2013-04-03 13:20:00,
2013-04-03 08:25:00,55.8,52.9,30.00,NNE,28,5.0,16.0,90,0.00,,SKC,0.20,VWS V14.01,2013-04-03 13:25:00,
2013-04-03 08:30:00,55.7,52.8,30.00,North,355,3.0,16.0,90,0.00,,SKC,0.20,VWS V14.01,2013-04-03 13:30:00,
2013-04-03 08:35:00,55.6,52.7,29.99,NE,34,5.0,11.0,90,0.00,,SKC,0.20,VWS V14.01,2013-04-03 13:35:00,
2013-04-03 08:40:00,55.5,52.3,29.99,North,355,6.0,13.0,89,0.00,,SKC,0.20,VWS V14.01,2013-04-03 13:40:00,
2013-04-03 08:45:00,55.5,52.6,29.99,NE,38,5.0,13.0,90,0.00,,SKC,0.20,VWS V14.01,2013-04-03 13:45:00,
2013-04-03 08:50:00,55.4,52.2,29.99,NW,323,10.0,15.0,89,0.00,,SKC,0.20,VWS V14.01,2013-04-03 13:50:00,
2013-04-03 08:55:00,55.2,52.0,30.00,North,5,4.0,17.0,89,0.00,,SKC,0.20,VWS V14.01,2013-04-03 13:55:00,
2013-04-03 09:00:00,55.1,51.9,30.00,North,355,2.0,17.0,89,0.00,,SKC,0.20,VWS V14.01,2013-04-03 14:00:00,
2013-04-03 09:05:00,55.2,52.0,30.00,NE,48,5.0,6.0,89,0.00,,SKC,0.20,VWS V14.01,2013-04-03 14:05:00,
2013-04-03 09:10:00,55.3,52.1,30.01,NNE,18,3.0,10.0,89,0.00,,SKC,0.20,VWS V14.01,2013-04-03 14:10:00,
2013-04-03 09:15:00,55.3,52.1,30.02,North,360,7.0,14.0,89,0.00,,SKC,0.20,VWS V14.01,2013-04-03 14:15:00,
2013-04-03 09:20:00,55.2,51.7,30.02,North,350,6.0,14.0,88,0.00,,SKC,0.20,VWS V14.01,2013-04-03 14:20:00,
2013-04-03 09:25:00,55.3,51.8,30.02,North,355,10.0,14.0,88,0.00,,SKC,0.20,VWS V14.01,2013-04-03 14:25:00,
2013-04-03 09:30:00,55.3,51.8,30.03,NNE,22,10.0,18.0,88,0.00,,SKC,0.20,VWS V14.01,2013-04-03 14:30:00,
2013-04-03 09:35:00,55.2,51.4,30.03,NNW,345,2.0,15.0,87,0.00,,SKC,0.20,VWS V14.01,2013-04-03 14:35:00,
2013-04-03 09:40:00,55.2,51.4,30.04,NW,324,10.0,17.0,87,0.00,,SKC,0.20,VWS V14.01,2013-04-03 14:40:00,
2013-04-03 09:44:00,55.0,50.9,30.04,NNW,345,0.0,17.0,86,0.00,,SKC,0.20,VWS V14.01,2013-04-03 14:44:00,
2013-04-03 09:49:00,55.0,50.9,30.03,NNE,21,3.0,17.0,86,0.00,,SKC,0.20,VWS V14.01,2013-04-03 14:49:00,
2013-04-03 09:54:00,54.9,50.8,30.02,North,355,10.0,17.0,86,0.00,,SKC,0.20,VWS V14.01,2013-04-03 14:54:00,
2013-04-03 09:59:00,54.9,50.8,30.03,North,360,9.0,17.0,86,0.00,,SKC,0.20,VWS V14.01,2013-04-03 14:59:00,
2013-04-03 10:04:00,54.8,50.7,30.03,North,5,7.0,19.0,86,0.01,,SKC,0.21,VWS V14.01,2013-04-03 15:04:00,
2013-04-03 10:09:00,54.7,50.6,30.03,NNE,30,7.0,22.0,86,0.01,,SKC,0.21,VWS V14.01,2013-04-03 15:09:00,
2013-04-03 10:14:00,54.5,50.7,30.03,NNE,17,8.0,22.0,87,0.01,,SKC,0.21,VWS V14.01,2013-04-03 15:14:00,
2013-04-03 10:19:00,54.4,50.6,30.03,NNE,32,10.0,22.0,87,0.01,,SKC,0.21,VWS V14.01,2013-04-03 15:19:00,
2013-04-03 10:24:00,54.3,50.5,30.03,NNW,342,20.0,22.0,87,0.01,,SKC,0.21,VWS V14.01,2013-04-03 15:24:00,
2013-04-03 10:29:00,54.2,50.4,30.02,North,5,10.0,22.0,87,0.01,,SKC,0.21,VWS V14.01,2013-04-03 15:29:00,
2013-04-03 10:34:00,54.2,50.4,30.03,NNE,18,2.0,13.0,87,0.01,,SKC,0.21,VWS V14.01,2013-04-03 15:34:00,
2013-04-03 10:39:00,54.1,50.3,30.01,NNW,340,10.0,19.0,87,0.01,,SKC,0.21,VWS V14.01,2013-04-03 15:39:00,
2013-04-03 10:44:00,54.1,50.3,30.02,North,355,10.0,19.0,87,0.01,,SKC,0.21,VWS V14.01,2013-04-03 15:44:00,
2013-04-03 10:49:00,54.1,50.3,30.03,NNW,348,12.0,21.0,87,0.01,,SKC,0.21,VWS V14.01,2013-04-03 15:49:00,
2013-04-03 10:54:00,54.0,49.9,30.02,NNE,19,5.0,21.0,86,0.01,,SKC,0.21,VWS V14.01,2013-04-03 15:54:00,
2013-04-03 11:00:00,53.9,49.8,30.01,NE,53,6.0,21.0,86,0.01,,SKC,0.21,VWS V14.01,2013-04-03 16:00:00,
2013-04-03 11:05:00,53.9,49.8,30.00,NE,39,3.0,10.0,86,0.01,,SKC,0.21,VWS V14.01,2013-04-03 16:05:00,
2013-04-03 11:10:00,53.8,49.7,30.01,NE,53,1.0,10.0,86,0.01,,SKC,0.21,VWS V14.01,2013-04-03 16:10:00,
2013-04-03 11:15:00,53.9,50.1,29.99,NE,46,3.0,13.0,87,0.01,,SKC,0.21,VWS V14.01,2013-04-03 16:15:00,
2013-04-03 11:20:00,53.9,50.1,29.99,East,86,5.0,13.0,87,0.01,,SKC,0.21,VWS V14.01,2013-04-03 16:20:00,
2013-04-03 11:25:00,53.9,50.1,29.96,East,82,4.0,13.0,87,0.01,,SKC,0.21,VWS V14.01,2013-04-03 16:25:00,
2013-04-03 11:30:00,53.8,50.0,29.95,East,96,9.0,15.0,87,0.01,,SKC,0.21,VWS V14.01,2013-04-03 16:30:00,
2013-04-03 11:35:00,53.7,50.2,29.95,ENE,77,5.0,14.0,88,0.00,,SKC,0.21,VWS V14.01,2013-04-03 16:35:00,
2013-04-03 11:40:00,53.7,50.2,29.98,NE,55,3.0,14.0,88,0.00,,SKC,0.21,VWS V14.01,2013-04-03 16:40:00,
2013-04-03 11:45:00,53.8,50.3,30.04,WSW,254,7.0,14.0,88,0.00,,SKC,0.21,VWS V14.01,2013-04-03 16:45:00,
2013-04-03 11:50:00,54.0,50.8,30.11,WSW,250,13.0,24.0,89,0.00,,SKC,0.21,VWS V14.01,2013-04-03 16:50:00,
2013-04-03 11:55:00,54.1,50.9,30.10,South,182,5.0,24.0,89,0.01,,SKC,0.22,VWS V14.01,2013-04-03 16:55:00,
2013-04-03 12:00:00,54.0,50.8,29.99,ESE,104,4.0,24.0,89,0.03,,SKC,0.24,VWS V14.01,2013-04-03 17:00:00,
2013-04-03 12:05:00,53.8,50.9,29.99,East,99,2.0,3.0,90,0.05,,SKC,0.26,VWS V14.01,2013-04-03 17:05:00,
2013-04-03 12:10:00,53.7,50.8,30.00,NNE,20,4.0,9.0,90,0.05,,SKC,0.26,VWS V14.01,2013-04-03 17:10:00,
2013-04-03 12:15:00,53.6,51.0,30.01,NNW,334,8.0,10.0,91,0.06,,SKC,0.27,VWS V14.01,2013-04-03 17:15:00,
2013-04-03 12:20:00,53.5,50.9,30.05,NW,326,4.0,11.0,91,0.07,,SKC,0.28,VWS V14.01,2013-04-03 17:20:00,
2013-04-03 12:25:00,53.3,50.7,30.05,WNW,282,7.0,11.0,91,0.07,,SKC,0.28,VWS V14.01,2013-04-03 17:25:00,
2013-04-03 12:30:00,53.2,50.7,30.04,NNW,332,8.0,13.0,91,0.07,,SKC,0.28,VWS V14.01,2013-04-03 17:30:00,
2013-04-03 12:35:00,53.0,50.7,30.03,North,355,8.0,10.0,92,0.07,,SKC,0.28,VWS V14.01,2013-04-03 17:35:00,
2013-04-03 12:40:00,52.9,50.6,30.04,NW,315,9.0,12.0,92,0.07,,SKC,0.28,VWS V14.01,2013-04-03 17:40:00,
2013-04-03 12:45:00,52.8,50.5,30.05,NW,321,11.0,12.0,92,0.07,,SKC,0.28,VWS V14.01,2013-04-03 17:45:00,
2013-04-03 12:50:00,52.6,50.3,30.03,NNW,327,3.0,12.0,92,0.07,,SKC,0.28,VWS V14.01,2013-04-03 17:50:00,
2013-04-03 12:55:00,52.6,50.3,30.04,NNW,331,12.0,13.0,92,0.07,,SKC,0.28,VWS V14.01,2013-04-03 17:55:00,
2013-04-03 13:00:00,52.6,50.6,30.05,NNW,332,6.0,13.0,93,0.07,,SKC,0.28,VWS V14.01,2013-04-03 18:00:00,
2013-04-03 13:05:00,52.6,50.6,30.04,NW,311,9.0,12.0,93,0.03,,SKC,0.28,VWS V14.01,2013-04-03 18:05:00,
2013-04-03 13:10:00,52.7,50.7,30.06,NW,313,2.0,12.0,93,0.03,,SKC,0.28,VWS V14.01,2013-04-03 18:10:00,
2013-04-03 13:15:00,52.8,50.8,30.06,NW,306,3.0,12.0,93,0.03,,SKC,0.28,VWS V14.01,2013-04-03 18:15:00,
2013-04-03 13:20:00,52.9,50.9,30.05,NW,311,3.0,12.0,93,0.03,,SKC,0.28,VWS V14.01,2013-04-03 18:20:00,
2013-04-03 13:25:00,52.7,50.7,30.05,NNW,340,5.0,14.0,93,0.03,,SKC,0.28,VWS V14.01,2013-04-03 18:25:00,
2013-04-03 13:30:00,52.6,50.6,30.05,NNW,331,2.0,14.0,93,0.03,,SKC,0.28,VWS V14.01,2013-04-03 18:30:00,
2013-04-03 13:35:00,52.4,50.2,30.05,NW,317,8.0,15.0,92,0.00,,SKC,0.28,VWS V14.01,2013-04-03 18:35:00,
2013-04-03 13:40:00,52.4,50.2,30.04,NW,325,9.0,15.0,92,0.00,,SKC,0.28,VWS V14.01,2013-04-03 18:40:00,
2013-04-03 13:45:00,52.6,50.6,30.03,NW,326,2.0,15.0,93,0.00,,SKC,0.28,VWS V14.01,2013-04-03 18:45:00,
2013-04-03 13:50:00,52.8,50.8,30.03,North,355,10.0,15.0,93,0.00,,SKC,0.28,VWS V14.01,2013-04-03 18:50:00,
2013-04-03 13:55:00,52.8,50.5,30.03,NNE,22,4.0,15.0,92,0.00,,SKC,0.28,VWS V14.01,2013-04-03 18:55:00,
2013-04-03 14:00:00,52.8,50.5,30.03,WNW,291,3.0,15.0,92,0.00,,SKC,0.28,VWS V14.01,2013-04-03 19:00:00,
2013-04-03 14:05:00,52.6,50.3,30.03,NNW,347,5.0,11.0,92,0.00,,SKC,0.28,VWS V14.01,2013-04-03 19:05:00,
2013-04-03 14:10:00,52.8,50.5,30.03,NW,321,9.0,13.0,92,0.00,,SKC,0.28,VWS V14.01,2013-04-03 19:10:00,
2013-04-03 14:15:00,53.0,50.7,30.03,NNW,339,6.0,13.0,92,0.00,,SKC,0.28,VWS V14.01,2013-04-03 19:15:00,
2013-04-03 14:20:00,53.2,50.7,30.02,NNW,339,6.0,18.0,91,0.00,,SKC,0.28,VWS V14.01,2013-04-03 19:20:00,
2013-04-03 14:25:00,53.4,50.8,30.02,North,350,4.0,18.0,91,0.00,,SKC,0.28,VWS V14.01,2013-04-03 19:25:00,
2013-04-03 14:30:00,53.7,50.8,30.02,North,349,5.0,18.0,90,0.00,,SKC,0.28,VWS V14.01,2013-04-03 19:30:00,
2013-04-03 14:35:00,53.8,50.9,30.02,NW,317,9.0,16.0,90,0.00,,SKC,0.28,VWS V14.01,2013-04-03 19:35:00,
2013-04-03 14:40:00,53.9,50.7,30.02,NW,325,5.0,17.0,89,0.00,,SKC,0.28,VWS V14.01,2013-04-03 19:40:00,
2013-04-03 14:45:00,54.0,50.5,30.02,North,355,9.0,17.0,88,0.00,,SKC,0.28,VWS V14.01,2013-04-03 19:45:00,
2013-04-03 14:50:00,54.1,50.6,30.03,NW,306,9.0,17.0,88,0.00,,SKC,0.28,VWS V14.01,2013-04-03 19:50:00,
2013-04-03 14:55:00,54.0,50.5,30.02,NNW,338,8.0,17.0,88,0.00,,SKC,0.28,VWS V14.01,2013-04-03 19:55:00,
2013-04-03 15:00:00,53.9,50.4,30.01,North,355,3.0,17.0,88,0.00,,SKC,0.28,VWS V14.01,2013-04-03 20:00:00,
2013-04-03 15:05:00,53.6,49.8,30.02,NNW,336,11.0,12.0,87,0.00,,SKC,0.28,VWS V14.01,2013-04-03 20:05:00,
2013-04-03 15:10:00,53.4,49.6,30.04,NNW,343,4.0,12.0,87,0.00,,SKC,0.28,VWS V14.01,2013-04-03 20:10:00,
2013-04-03 15:15:00,53.2,49.7,30.03,NNW,338,11.0,12.0,88,0.00,,SKC,0.28,VWS V14.01,2013-04-03 20:15:00,
2013-04-03 15:20:00,53.1,49.7,30.02,North,5,11.0,13.0,88,0.00,,SKC,0.28,VWS V14.01,2013-04-03 20:20:00,
2013-04-03 15:25:00,52.9,49.5,30.03,North,360,11.0,15.0,88,0.00,,SKC,0.28,VWS V14.01,2013-04-03 20:25:00,
2013-04-03 15:30:00,52.9,49.8,30.03,NW,318,11.0,15.0,89,0.01,,SKC,0.29,VWS V14.01,2013-04-03 20:30:00,
2013-04-03 15:35:00,53.0,49.8,30.03,NW,319,7.0,8.0,89,0.01,,SKC,0.29,VWS V14.01,2013-04-03 20:35:00,
2013-04-03 15:40:00,53.0,50.2,30.04,North,360,6.0,11.0,90,0.01,,SKC,0.29,VWS V14.01,2013-04-03 20:40:00,
2013-04-03 15:45:00,52.9,50.0,30.03,North,355,7.0,11.0,90,0.01,,SKC,0.29,VWS V14.01,2013-04-03 20:45:00,
2013-04-03 15:50:00,52.9,50.0,30.03,NNW,333,3.0,12.0,90,0.01,,SKC,0.29,VWS V14.01,2013-04-03 20:50:00,
2013-04-03 15:55:00,53.0,50.2,30.03,NW,323,12.0,13.0,90,0.01,,SKC,0.29,VWS V14.01,2013-04-03 20:55:00,
2013-04-03 16:00:00,53.1,50.2,30.03,NW,324,3.0,13.0,90,0.01,,SKC,0.29,VWS V14.01,2013-04-03 21:00:00,
2013-04-03 16:05:00,53.3,50.5,30.05,North,5,9.0,9.0,90,0.01,,SKC,0.29,VWS V14.01,2013-04-03 21:05:00,
2013-04-03 16:10:00,53.3,50.5,30.05,NE,37,1.0,11.0,90,0.01,,SKC,0.29,VWS V14.01,2013-04-03 21:10:00,
2013-04-03 16:15:00,53.3,50.2,30.05,NNW,327,12.0,12.0,89,0.01,,SKC,0.29,VWS V14.01,2013-04-03 21:15:00,
2013-04-03 16:20:00,53.3,50.2,30.05,North,360,10.0,12.0,89,0.01,,SKC,0.29,VWS V14.01,2013-04-03 21:20:00,
2013-04-03 16:25:00,53.3,50.2,30.03,NNW,343,6.0,12.0,89,0.01,,SKC,0.29,VWS V14.01,2013-04-03 21:25:00,
2013-04-03 16:30:00,53.3,49.8,30.04,NNW,340,3.0,13.0,88,0.01,,SKC,0.29,VWS V14.01,2013-04-03 21:30:00,
2013-04-03 16:35:00,53.2,49.7,30.05,North,350,9.0,13.0,88,0.01,,SKC,0.30,VWS V14.01,2013-04-03 21:35:00,
2013-04-03 16:40:00,53.1,49.7,30.06,NW,325,6.0,13.0,88,0.01,,SKC,0.30,VWS V14.01,2013-04-03 21:40:00,
2013-04-03 16:45:00,53.0,49.8,30.04,NNW,346,3.0,13.0,89,0.02,,SKC,0.31,VWS V14.01,2013-04-03 21:45:00,
2013-04-03 16:50:00,52.7,49.5,30.04,North,360,4.0,15.0,89,0.02,,SKC,0.31,VWS V14.01,2013-04-03 21:50:00,
2013-04-03 16:55:00,52.5,49.4,30.04,North,350,8.0,15.0,89,0.02,,SKC,0.31,VWS V14.01,2013-04-03 21:55:00,
2013-04-03 17:00:00,52.4,49.6,30.05,NNW,327,6.0,15.0,90,0.02,,SKC,0.31,VWS V14.01,2013-04-03 22:00:00,
2013-04-03 17:05:00,52.3,49.5,30.05,North,349,0.0,13.0,90,0.02,,SKC,0.31,VWS V14.01,2013-04-03 22:05:00,
2013-04-03 17:10:00,52.3,49.5,30.05,NNE,15,9.0,13.0,90,0.02,,SKC,0.31,VWS V14.01,2013-04-03 22:10:00,
2013-04-03 17:15:00,52.3,49.5,30.05,NNW,348,5.0,13.0,90,0.02,,SKC,0.31,VWS V14.01,2013-04-03 22:15:00,
2013-04-03 17:20:00,52.2,49.4,30.05,NNW,340,5.0,13.0,90,0.02,,SKC,0.31,VWS V14.01,2013-04-03 22:20:00,
2013-04-03 17:25:00,52.0,49.2,30.05,North,5,8.0,17.0,90,0.02,,SKC,0.31,VWS V14.01,2013-04-03 22:25:00,
2013-04-03 17:30:00,52.1,49.3,30.04,NE,51,7.0,17.0,90,0.02,,SKC,0.31,VWS V14.01,2013-04-03 22:30:00,
2013-04-03 17:35:00,52.2,49.1,30.04,NNE,17,8.0,15.0,89,0.02,,SKC,0.31,VWS V14.01,2013-04-03 22:35:00,
2013-04-03 17:40:00,52.3,49.2,30.05,NNW,344,4.0,15.0,89,0.02,,SKC,0.31,VWS V14.01,2013-04-03 22:40:00,
2013-04-03 17:45:00,52.7,49.5,30.05,NNW,331,9.0,15.0,89,0.02,,SKC,0.31,VWS V14.01,2013-04-03 22:45:00,
2013-04-03 17:50:00,53.0,49.5,30.05,NNW,327,5.0,15.0,88,0.02,,SKC,0.31,VWS V14.01,2013-04-03 22:50:00,
2013-04-03 17:55:00,53.1,49.7,30.04,NNW,342,4.0,15.0,88,0.02,,SKC,0.31,VWS V14.01,2013-04-03 22:55:00,
2013-04-03 18:00:00,53.2,49.4,30.04,NNW,340,10.0,15.0,87,0.02,,SKC,0.31,VWS V14.01,2013-04-03 23:00:00,
2013-04-03 18:05:00,53.2,49.1,30.05,West,271,11.0,19.0,86,0.00,,SKC,0.31,VWS V14.01,2013-04-03 23:05:00,
2013-04-03 18:10:00,53.2,49.1,30.05,North,355,4.0,19.0,86,0.00,,SKC,0.31,VWS V14.01,2013-04-03 23:10:00,
2013-04-03 18:15:00,53.2,49.1,30.05,North,355,6.0,19.0,86,0.00,,SKC,0.31,VWS V14.01,2013-04-03 23:15:00,
2013-04-03 18:20:00,53.2,48.8,30.05,NW,315,5.0,19.0,85,0.00,,SKC,0.31,VWS V14.01,2013-04-03 23:20:00,
2013-04-03 18:25:00,53.1,48.7,30.05,NNE,23,9.0,19.0,85,0.00,,SKC,0.31,VWS V14.01,2013-04-03 23:25:00,
2013-04-03 18:30:00,53.0,48.6,30.05,North,355,2.0,19.0,85,0.00,,SKC,0.31,VWS V14.01,2013-04-03 23:30:00,
2013-04-03 18:35:00,52.9,48.8,30.05,NNW,348,2.0,12.0,86,0.00,,SKC,0.31,VWS V14.01,2013-04-03 23:35:00,
2013-04-03 18:40:00,52.8,48.4,30.05,North,355,7.0,14.0,85,0.00,,SKC,0.31,VWS V14.01,2013-04-03 23:40:00,
2013-04-03 18:45:00,52.7,48.3,30.06,North,360,5.0,15.0,85,0.00,,SKC,0.31,VWS V14.01,2013-04-03 23:45:00,
2013-04-03 18:50:00,52.6,48.2,30.06,NNW,346,5.0,16.0,85,0.00,,SKC,0.31,VWS V14.01,2013-04-03 23:50:00,
2013-04-03 18:55:00,52.5,48.1,30.06,NW,319,15.0,16.0,85,0.00,,SKC,0.31,VWS V14.01,2013-04-03 23:55:00,
2013-04-03 19:00:00,52.4,48.0,30.07,North,360,12.0,16.0,85,0.00,,SKC,0.31,VWS V14.01,2013-04-04 00:00:00,
2013-04-03 19:05:00,52.2,47.8,30.07,NNW,344,10.0,13.0,85,0.00,,SKC,0.31,VWS V14.01,2013-04-04 00:05:00,
2013-04-03 19:10:00,52.1,47.7,30.08,NW,309,12.0,16.0,85,0.00,,SKC,0.31,VWS V14.01,2013-04-04 00:10:00,
2013-04-03 19:15:00,52.0,47.6,30.08,NNE,28,12.0,16.0,85,0.00,,SKC,0.31,VWS V14.01,2013-04-04 00:15:00,
2013-04-03 19:20:00,51.9,47.5,30.08,NW,309,8.0,16.0,85,0.00,,SKC,0.31,VWS V14.01,2013-04-04 00:20:00,
2013-04-03 19:25:00,51.8,47.8,30.08,NNW,339,9.0,16.0,86,0.00,,SKC,0.31,VWS V14.01,2013-04-04 00:25:00,
2013-04-03 19:30:00,51.7,47.7,30.09,NNW,336,7.0,16.0,86,0.00,,SKC,0.31,VWS V14.01,2013-04-04 00:30:00,
2013-04-03 19:35:00,51.5,47.5,30.09,NNW,347,9.0,14.0,86,0.00,,SKC,0.31,VWS V14.01,2013-04-04 00:35:00,
2013-04-03 19:40:00,51.4,47.4,30.09,NNW,342,10.0,18.0,86,0.00,,SKC,0.31,VWS V14.01,2013-04-04 00:40:00,
2013-04-03 19:45:00,51.3,47.3,30.09,NNE,13,9.0,18.0,86,0.00,,SKC,0.31,VWS V14.01,2013-04-04 00:45:00,
2013-04-03 19:50:00,51.2,47.2,30.09,North,355,4.0,18.0,86,0.00,,SKC,0.31,VWS V14.01,2013-04-04 00:50:00,
2013-04-03 19:55:00,51.1,47.1,30.09,North,349,9.0,18.0,86,0.00,,SKC,0.31,VWS V14.01,2013-04-04 00:55:00,
2013-04-03 20:00:00,51.0,47.0,30.09,NNW,335,8.0,18.0,86,0.00,,SKC,0.31,VWS V14.01,2013-04-04 01:00:00,
2013-04-03 20:05:00,51.0,47.0,30.09,NNE,26,13.0,13.0,86,0.00,,SKC,0.31,VWS V14.01,2013-04-04 01:05:00,
2013-04-03 20:10:00,50.9,46.9,30.10,NNW,337,12.0,14.0,86,0.00,,SKC,0.31,VWS V14.01,2013-04-04 01:10:00,
2013-04-03 20:15:00,50.9,46.9,30.10,NNW,342,11.0,15.0,86,0.00,,SKC,0.31,VWS V14.01,2013-04-04 01:15:00,
2013-04-03 20:20:00,50.9,46.9,30.10,North,9,3.0,15.0,86,0.00,,SKC,0.31,VWS V14.01,2013-04-04 01:20:00,
2013-04-03 20:25:00,50.8,46.8,30.10,NNE,17,10.0,15.0,86,0.00,,SKC,0.31,VWS V14.01,2013-04-04 01:25:00,
2013-04-03 20:30:00,50.8,46.8,30.10,NNW,345,9.0,15.0,86,0.00,,SKC,0.31,VWS V14.01,2013-04-04 01:30:00,
2013-04-03 20:35:00,50.8,46.8,30.11,NNE,12,4.0,15.0,86,0.00,,SKC,0.31,VWS V14.01,2013-04-04 01:35:00,
2013-04-03 20:40:00,50.7,46.7,30.11,NNE,22,9.0,15.0,86,0.00,,SKC,0.31,VWS V14.01,2013-04-04 01:40:00,
2013-04-03 20:45:00,50.7,46.7,30.11,North,350,5.0,15.0,86,0.00,,SKC,0.31,VWS V14.01,2013-04-04 01:45:00,
2013-04-03 20:50:00,50.6,46.6,30.11,NNW,342,10.0,15.0,86,0.00,,SKC,0.31,VWS V14.01,2013-04-04 01:50:00,
2013-04-03 20:55:00,50.6,46.6,30.12,NNW,327,11.0,15.0,86,0.00,,SKC,0.31,VWS V14.01,2013-04-04 01:55:00,
2013-04-03 21:00:00,50.6,46.6,30.12,North,355,3.0,15.0,86,0.00,,SKC,0.31,VWS V14.01,2013-04-04 02:00:00,
2013-04-03 21:05:00,50.6,46.6,30.13,North,11,5.0,7.0,86,0.00,,SKC,0.31,VWS V14.01,2013-04-04 02:05:00,
2013-04-03 21:10:00,50.6,46.6,30.13,NNW,342,2.0,9.0,86,0.00,,SKC,0.31,VWS V14.01,2013-04-04 02:10:00,
2013-04-03 21:15:00,50.6,46.9,30.13,North,355,5.0,11.0,87,0.00,,SKC,0.31,VWS V14.01,2013-04-04 02:15:00,
2013-04-03 21:20:00,50.5,46.8,30.13,NNE,28,6.0,11.0,87,0.00,,SKC,0.31,VWS V14.01,2013-04-04 02:20:00,
2013-04-03 21:25:00,50.5,46.8,30.14,NNE,25,11.0,14.0,87,0.00,,SKC,0.31,VWS V14.01,2013-04-04 02:25:00,
2013-04-03 21:30:00,50.5,46.8,30.14,NNW,329,3.0,14.0,87,0.00,,SKC,0.31,VWS V14.01,2013-04-04 02:30:00,
2013-04-03 21:35:00,50.5,46.5,30.14,North,5,4.0,7.0,86,0.00,,SKC,0.31,VWS V14.01,2013-04-04 02:35:00,
2013-04-03 21:40:00,50.5,46.5,30.14,NNW,345,7.0,8.0,86,0.00,,SKC,0.31,VWS V14.01,2013-04-04 02:40:00,
2013-04-03 21:45:00,50.5,46.5,30.14,North,5,3.0,10.0,86,0.00,,SKC,0.31,VWS V14.01,2013-04-04 02:45:00,
2013-04-03 21:50:00,50.5,46.5,30.15,NNW,328,6.0,10.0,86,0.00,,SKC,0.31,VWS V14.01,2013-04-04 02:50:00,
2013-04-03 21:55:00,50.5,46.5,30.15,North,355,1.0,10.0,86,0.00,,SKC,0.31,VWS V14.01,2013-04-04 02:55:00,
2013-04-03 22:00:00,50.6,46.6,30.15,NNW,344,3.0,10.0,86,0.00,,SKC,0.31,VWS V14.01,2013-04-04 03:00:00,
2013-04-03 22:05:00,50.6,46.6,30.16,NNW,341,4.0,9.0,86,0.00,,SKC,0.31,VWS V14.01,2013-04-04 03:05:00,
2013-04-03 22:10:00,50.6,46.6,30.16,North,351,1.0,9.0,86,0.00,,SKC,0.31,VWS V14.01,2013-04-04 03:10:00,
2013-04-03 22:15:00,50.5,46.5,30.16,NW,323,3.0,12.0,86,0.00,,SKC,0.31,VWS V14.01,2013-04-04 03:15:00,
2013-04-03 22:20:00,50.4,46.4,30.16,NNE,15,1.0,12.0,86,0.00,,SKC,0.31,VWS V14.01,2013-04-04 03:20:00,
2013-04-03 22:25:00,50.4,46.4,30.16,North,360,3.0,12.0,86,0.00,,SKC,0.31,VWS V14.01,2013-04-04 03:25:00,
2013-04-03 22:30:00,50.4,46.4,30.16,NNW,342,4.0,12.0,86,0.00,,SKC,0.31,VWS V14.01,2013-04-04 03:30:00,
2013-04-03 22:35:00,50.3,46.3,30.17,NNW,346,2.0,12.0,86,0.00,,SKC,0.31,VWS V14.01,2013-04-04 03:35:00,
2013-04-03 22:40:00,50.2,46.2,30.17,North,350,2.0,12.0,86,0.00,,SKC,0.31,VWS V14.01,2013-04-04 03:40:00,
2013-04-03 22:45:00,50.1,46.1,30.17,North,9,3.0,12.0,86,0.00,,SKC,0.31,VWS V14.01,2013-04-04 03:45:00,
2013-04-03 22:50:00,50.1,46.1,30.16,NNW,342,2.0,12.0,86,0.00,,SKC,0.31,VWS V14.01,2013-04-04 03:50:00,
2013-04-03 22:55:00,50.1,46.1,30.16,NNW,346,2.0,12.0,86,0.00,,SKC,0.31,VWS V14.01,2013-04-04 03:55:00,
2013-04-03 23:00:00,50.1,46.1,30.16,NNW,331,5.0,13.0,86,0.00,,SKC,0.31,VWS V14.01,2013-04-04 04:00:00,
2013-04-03 23:05:00,50.1,46.1,30.16,NNW,341,6.0,11.0,86,0.00,,SKC,0.31,VWS V14.01,2013-04-04 04:05:00,
2013-04-03 23:10:00,50.0,46.0,30.17,North,360,3.0,11.0,86,0.00,,SKC,0.31,VWS V14.01,2013-04-04 04:10:00,
2013-04-03 23:15:00,50.0,46.9,30.16,NNW,333,6.0,11.0,89,0.00,,SKC,0.31,VWS V14.01,2013-04-04 04:15:00,
2013-04-03 23:20:00,50.0,46.0,30.16,NNW,346,3.0,11.0,86,0.00,,SKC,0.31,VWS V14.01,2013-04-04 04:20:00,
2013-04-03 23:25:00,49.9,45.9,30.16,North,349,7.0,11.0,86,0.00,,SKC,0.31,VWS V14.01,2013-04-04 04:25:00,
2013-04-03 23:30:00,49.9,45.9,30.17,NNE,25,3.0,11.0,86,0.00,,SKC,0.31,VWS V14.01,2013-04-04 04:30:00,
2013-04-03 23:35:00,49.8,45.8,30.16,North,350,5.0,10.0,86,0.00,,SKC,0.31,VWS V14.01,2013-04-04 04:35:00,
2013-04-03 23:40:00,49.7,45.4,30.16,NNE,19,7.0,11.0,85,0.00,,SKC,0.31,VWS V14.01,2013-04-04 04:40:00,
2013-04-03 23:45:00,49.7,45.4,30.16,North,9,6.0,11.0,85,0.00,,SKC,0.31,VWS V14.01,2013-04-04 04:45:00,
2013-04-03 23:50:00,49.7,45.4,30.16,North,5,3.0,13.0,85,0.00,,SKC,0.31,VWS V14.01,2013-04-04 04:50:00,
2013-04-03 23:55:00,49.7,45.4,30.17,NE,51,5.0,13.0,85,0.00,,SKC,0.31,VWS V14.01,2013-04-04 04:55:00,